Time;durP1;ratioP1;P1;durP2;ratioP2;P2;SDS_P1;SDS_P2;PMS_P1;PMS_P2;Temp;Humidity;BMP_temperature;BMP_pressure;BME280_temperature;BME280_humidity;BME280_pressure;Samples;Min_cycle;Max_cycle;Signal;HPM_P1;HPM_P2
2021/04/28 00:00:01;;;;;;;48.42;26.90;;;;;;;3.45;66.91;94393.66;1719688;82;21135;-55
2021/04/28 00:02:31;;;;;;;52.10;26.40;;;;;;;3.36;66.99;94390.66;1719716;83;21096;-55
2021/04/28 00:04:59;;;;;;;33.73;22.77;;;;;;;3.33;67.20;94392.84;1719757;83;21100;-54
2021/04/28 00:07:27;;;;;;;46.90;23.02;;;;;;;3.33;67.16;94390.13;1719721;83;21140;-55
2021/04/28 00:09:55;;;;;;;34.58;21.75;;;;;;;3.36;67.05;94386.58;1719680;83;21378;-55
2021/04/28 00:12:23;;;;;;;29.90;19.77;;;;;;;3.35;66.87;94383.69;1719661;83;21124;-55
2021/04/28 00:14:52;;;;;;;30.57;18.92;;;;;;;3.28;66.72;94385.16;1719664;83;21497;-55
2021/04/28 00:17:20;;;;;;;26.95;18.48;;;;;;;3.14;66.81;94375.83;1719679;83;21092;-54
2021/04/28 00:19:48;;;;;;;32.65;20.60;;;;;;;3.03;67.15;94377.93;1719725;83;21128;-55
2021/04/28 00:22:16;;;;;;;31.07;19.85;;;;;;;3.00;67.72;94374.64;1719685;83;21286;-53
2021/04/28 00:24:44;;;;;;;30.10;18.37;;;;;;;3.01;67.50;94368.81;1719575;83;21233;-55
2021/04/28 00:27:13;;;;;;;44.65;23.92;;;;;;;2.94;67.39;94370.85;1719696;83;21092;-54
2021/04/28 00:29:42;;;;;;;39.53;24.07;;;;;;;2.84;67.58;94375.23;1719666;83;21092;-54
2021/04/28 00:32:10;;;;;;;50.17;25.65;;;;;;;2.79;67.98;94374.91;1719659;83;21136;-55
2021/04/28 00:34:38;;;;;;;43.40;24.23;;;;;;;2.76;68.02;94372.44;1719607;83;21218;-53
2021/04/28 00:37:06;;;;;;;47.95;24.80;;;;;;;2.73;67.96;94368.40;1719627;83;21156;-54
2021/04/28 00:39:35;;;;;;;51.02;28.12;;;;;;;2.65;68.08;94376.46;1719742;83;21111;-55
2021/04/28 00:42:05;;;;;;;39.58;24.92;;;;;;;2.60;68.74;94366.02;1719604;82;21107;-54
2021/04/28 00:44:33;;;;;;;53.35;26.55;;;;;;;2.63;68.92;94367.92;1719697;82;21096;-53
2021/04/28 00:47:02;;;;;;;56.05;26.40;;;;;;;2.68;68.77;94375.64;1718656;83;21210;-53
2021/04/28 00:49:31;;;;;;;49.38;25.45;;;;;;;2.72;68.71;94369.58;1719569;83;21108;-55
2021/04/28 00:52:00;;;;;;;37.45;22.17;;;;;;;2.74;68.55;94374.02;1719629;83;21080;-54
2021/04/28 00:54:28;;;;;;;31.05;18.15;;;;;;;2.73;68.13;94373.83;1695461;83;21123;-53
2021/04/28 00:56:56;;;;;;;27.52;18.85;;;;;;;2.65;68.12;94368.31;1730015;83;21155;-54
2021/04/28 00:59:27;;;;;;;28.50;18.17;;;;;;;2.56;68.15;94370.73;1730011;82;21218;-56
2021/04/28 01:01:54;;;;;;;34.88;18.40;;;;;;;2.47;68.46;94362.31;1730029;83;21092;-54
2021/04/28 01:04:24;;;;;;;32.85;19.62;;;;;;;2.48;68.72;94366.57;1730066;83;21151;-53
2021/04/28 01:06:53;;;;;;;29.70;17.82;;;;;;;2.58;68.79;94365.66;1730017;83;21091;-54
2021/04/28 01:09:23;;;;;;;22.73;15.98;;;;;;;2.66;68.63;94365.78;1730135;83;21083;-53
2021/04/28 01:11:51;;;;;;;23.60;16.75;;;;;;;2.70;68.16;94362.43;1729997;83;21379;-54
2021/04/28 01:14:19;;;;;;;28.73;17.75;;;;;;;2.69;67.95;94360.89;1729911;83;21107;-55
2021/04/28 01:16:48;;;;;;;24.70;19.07;;;;;;;2.56;67.88;94362.59;1703309;83;21157;-55
2021/04/28 01:19:16;;;;;;;28.38;18.75;;;;;;;2.51;68.26;94361.08;1729966;83;21103;-54
2021/04/28 01:21:46;;;;;;;34.88;20.70;;;;;;;2.50;68.47;94366.93;1702882;83;21158;-54
2021/04/28 01:24:14;;;;;;;30.08;20.23;;;;;;;2.50;68.30;94362.86;1730064;83;21222;-54
2021/04/28 01:26:42;;;;;;;35.00;21.25;;;;;;;2.47;68.50;94363.67;1729929;83;21124;-55
2021/04/28 01:29:10;;;;;;;31.15;18.92;;;;;;;2.44;68.42;94362.53;1680203;83;21076;-53
2021/04/28 01:31:38;;;;;;;32.48;22.45;;;;;;;2.32;68.31;94354.89;1729956;83;21155;-54
2021/04/28 01:34:06;;;;;;;27.73;20.08;;;;;;;2.24;68.72;94354.02;1729940;83;21167;-54
2021/04/28 01:36:37;;;;;;;33.45;21.42;;;;;;;2.26;68.97;94354.38;1703129;83;21482;-54
2021/04/28 01:39:09;;;;;;;34.55;21.57;;;;;;;2.24;68.96;94351.30;1729952;83;21204;-54
2021/04/28 01:41:40;;;;;;;31.10;18.62;;;;;;;2.16;69.28;94352.56;1702677;81;21146;-54
2021/04/28 01:44:12;;;;;;;26.95;19.30;;;;;;;2.07;69.09;94343.53;1702837;83;21229;-56
2021/04/28 01:46:41;;;;;;;29.20;20.48;;;;;;;1.99;69.21;94352.14;1730143;83;21123;-54
2021/04/28 01:49:10;;;;;;;49.77;28.50;;;;;;;1.96;69.60;94348.88;1729971;83;21163;-54
2021/04/28 01:51:40;;;;;;;54.15;32.20;;;;;;;1.98;69.90;94351.36;1729926;82;21124;-55
2021/04/28 01:54:15;;;;;;;45.65;29.60;;;;;;;1.98;70.17;94348.64;1729874;82;21183;-55
2021/04/28 01:56:46;;;;;;;33.50;22.15;;;;;;;1.97;70.17;94345.00;1702917;83;21553;-54
2021/04/28 01:59:26;;;;;;;22.50;17.65;;;;;;;1.98;70.24;94346.53;1776993;79;22734;-53
2021/04/28 02:02:04;;;;;;;33.95;19.40;;;;;;;1.84;69.92;94335.81;1749658;82;21084;-55
2021/04/28 02:04:36;;;;;;;22.27;17.62;;;;;;;1.76;69.77;94335.70;1749663;80;21200;-53
2021/04/28 02:07:04;;;;;;;35.65;23.85;;;;;;;1.71;69.76;94329.34;1720998;82;21123;-54
2021/04/28 02:09:32;;;;;;;36.15;22.32;;;;;;;1.70;69.93;94333.22;1749623;81;21048;-55
2021/04/28 02:12:00;;;;;;;33.30;20.95;;;;;;;1.75;70.40;94325.43;1749573;82;21127;-55
2021/04/28 02:14:30;;;;;;;52.03;29.82;;;;;;;1.84;70.23;94316.83;1749532;81;21162;-54
2021/04/28 02:17:04;;;;;;;52.60;31.93;;;;;;;1.91;70.10;94317.53;1749576;81;22372;-54
2021/04/28 02:19:39;;;;;;;61.58;34.08;;;;;;;1.95;70.02;94323.69;1749576;81;21099;-54
2021/04/28 02:22:10;;;;;;;58.78;30.65;;;;;;;1.95;69.78;94325.65;1721639;82;21619;-53
2021/04/28 02:24:48;;;;;;;72.95;37.95;;;;;;;1.90;70.04;94317.36;1749041;82;21218;-55
2021/04/28 02:27:18;;;;;;;64.27;38.55;;;;;;;1.94;69.93;94328.17;1748466;82;21502;-54
2021/04/28 02:29:46;;;;;;;54.40;33.67;;;;;;;1.89;69.88;94325.88;1749560;82;21197;-54
2021/04/28 02:32:15;;;;;;;58.05;34.70;;;;;;;1.82;69.99;94322.67;1749534;82;21095;-55
2021/04/28 02:35:05;;;;;;;66.07;37.53;;;;;;;1.76;70.37;94322.15;1726734;82;21165;-55
2021/04/28 02:37:35;;;;;;;80.97;38.80;;;;;;;1.75;70.59;94329.50;1726683;83;21122;-54
2021/04/28 02:40:22;;;;;;;103.62;52.13;;;;;;;1.69;70.72;94328.22;1738521;82;21131;-54
2021/04/28 02:42:52;;;;;;;111.77;51.98;;;;;;;1.66;71.05;94333.09;1731497;82;21376;-54
2021/04/28 02:45:23;;;;;;;61.98;34.10;;;;;;;1.68;71.19;94331.50;1691615;83;21170;-54
2021/04/28 02:47:52;;;;;;;39.63;25.30;;;;;;;1.70;71.15;94328.40;1719830;83;21132;-54
2021/04/28 02:50:22;;;;;;;52.00;29.57;;;;;;;1.80;71.01;94332.37;1668574;83;21610;-53
2021/04/28 02:52:53;;;;;;;67.10;32.95;;;;;;;1.91;70.48;94334.38;1717776;83;21155;-55
2021/04/28 02:55:21;;;;;;;64.87;33.30;;;;;;;1.98;70.15;94332.97;1691688;83;22392;-52
2021/04/28 02:57:52;;;;;;;59.00;32.42;;;;;;;2.08;70.29;94338.86;1693129;83;21501;-54
2021/04/28 03:00:24;;;;;;;65.60;36.63;;;;;;;2.16;69.88;94338.39;1727984;83;21167;-55
2021/04/28 03:02:51;;;;;;;109.50;49.80;;;;;;;2.21;69.52;94333.91;1701342;83;21608;-54
2021/04/28 03:05:20;;;;;;;98.05;52.38;;;;;;;2.21;69.39;94338.55;1727992;83;21166;-54
2021/04/28 03:08:08;;;;;;;72.80;39.30;;;;;;;2.11;69.53;94337.48;1728016;83;21369;-53
2021/04/28 03:10:36;;;;;;;67.27;40.28;;;;;;;2.03;69.54;94340.67;1727438;81;21090;-54
2021/04/28 03:13:04;;;;;;;90.32;48.75;;;;;;;1.97;69.46;94350.42;1727447;83;21076;-53
2021/04/28 03:15:32;;;;;;;80.55;48.95;;;;;;;1.87;69.69;94347.20;1727406;83;21146;-54
2021/04/28 03:18:02;;;;;;;74.47;43.70;;;;;;;1.83;69.98;94343.77;1727433;83;21082;-54
2021/04/28 03:20:31;;;;;;;90.40;51.13;;;;;;;1.81;69.89;94348.22;1701224;83;21208;-55
2021/04/28 03:23:01;;;;;;;77.00;40.55;;;;;;;1.73;70.16;94339.19;1727385;83;21139;-55
2021/04/28 03:25:29;;;;;;;50.33;31.62;;;;;;;1.68;70.53;94346.41;1727519;83;21186;-56
2021/04/28 03:27:57;;;;;;;52.75;30.90;;;;;;;1.69;70.84;94345.23;1727363;83;21095;-57
2021/04/28 03:30:26;;;;;;;55.65;33.98;;;;;;;1.66;71.08;94340.63;1727487;83;21095;-56
2021/04/28 03:32:54;;;;;;;67.12;36.30;;;;;;;1.73;71.36;94349.28;1727433;83;21277;-54
2021/04/28 03:35:24;;;;;;;61.77;36.90;;;;;;;1.76;71.12;94342.48;1711908;81;21099;-55
2021/04/28 03:37:53;;;;;;;63.40;38.10;;;;;;;1.76;71.28;94348.66;1723299;83;21071;-54
2021/04/28 03:40:21;;;;;;;64.82;37.95;;;;;;;1.85;71.56;94342.77;1727374;83;21143;-53
2021/04/28 03:42:49;;;;;;;57.75;33.90;;;;;;;1.99;71.38;94345.36;1727416;81;21140;-55
2021/04/28 03:45:17;;;;;;;56.75;32.90;;;;;;;2.13;70.89;94347.94;1727435;83;21255;-53
2021/04/28 03:47:45;;;;;;;49.23;32.28;;;;;;;2.27;70.66;94344.48;1727365;83;21108;-54
2021/04/28 03:50:14;;;;;;;57.30;35.90;;;;;;;2.41;70.18;94353.84;1727428;83;21095;-54
2021/04/28 03:52:46;;;;;;;72.87;43.17;;;;;;;2.44;69.80;94349.53;1723179;83;21083;-54
2021/04/28 03:55:21;;;;;;;77.82;45.12;;;;;;;2.42;69.86;94354.59;1725793;81;21249;-54
2021/04/28 03:57:49;;;;;;;86.12;47.78;;;;;;;2.43;70.10;94356.13;1725840;83;21507;-55
2021/04/28 04:00:19;;;;;;;85.25;47.08;;;;;;;2.53;70.11;94363.41;1706390;83;21112;-54
2021/04/28 04:02:48;;;;;;;82.27;46.83;;;;;;;2.55;69.56;94367.84;1705804;83;21212;-55
2021/04/28 04:05:36;;;;;;;89.60;47.88;;;;;;;2.33;69.58;94365.17;1688227;85;21151;-54
2021/04/28 04:08:17;;;;;;;103.38;54.23;;;;;;;2.12;70.26;94365.39;1873683;75;22674;-56
2021/04/28 04:10:48;;;;;;;84.40;46.45;;;;;;;1.96;70.64;94366.52;1841597;78;21069;-54
2021/04/28 04:13:15;;;;;;;78.80;46.25;;;;;;;1.91;71.02;94374.48;1841550;78;21176;-53
2021/04/28 04:15:45;;;;;;;68.90;42.65;;;;;;;1.79;71.29;94373.61;1841500;78;21046;-54
2021/04/28 04:18:13;;;;;;;75.57;46.08;;;;;;;1.69;71.75;94370.99;1841527;78;21164;-54
2021/04/28 04:20:49;;;;;;;70.70;42.40;;;;;;;1.66;72.17;94377.22;1841314;78;21065;-54
2021/04/28 04:23:23;;;;;;;77.53;44.40;;;;;;;1.68;72.42;94374.88;1832117;78;21121;-55
2021/04/28 04:26:04;;;;;;;74.00;42.50;;;;;;;1.69;72.38;94371.59;1841820;78;21368;-54
2021/04/28 04:28:38;;;;;;;71.20;42.03;;;;;;;1.69;72.59;94364.81;1779563;77;21137;-54
2021/04/28 04:31:08;;;;;;;77.50;45.60;;;;;;;1.67;72.82;94371.22;1838050;78;21487;-53
2021/04/28 04:33:54;;;;;;;72.00;44.73;;;;;;;1.73;72.92;94364.20;1841525;78;21042;-54
2021/04/28 04:36:41;;;;;;;66.35;40.55;;;;;;;1.75;72.80;94370.77;1841454;77;21118;-55
2021/04/28 04:39:20;;;;;;;63.60;38.70;;;;;;;1.70;72.95;94369.06;1805407;78;21364;-54
2021/04/28 04:42:08;;;;;;;89.07;45.73;;;;;;;1.59;73.12;94362.38;1832246;78;21069;-55
2021/04/28 04:44:41;;;;;;;71.72;40.45;;;;;;;1.53;73.42;94361.23;1807561;79;21192;-55
2021/04/28 04:47:10;;;;;;;66.45;38.90;;;;;;;1.51;73.64;94365.54;1808385;79;21705;-53
2021/04/28 04:49:39;;;;;;;74.05;38.38;;;;;;;1.46;73.72;94362.66;1808483;79;21062;-54
2021/04/28 04:52:07;;;;;;;90.15;46.18;;;;;;;1.40;73.83;94354.78;1808449;78;21195;-55
2021/04/28 04:54:35;;;;;;;81.00;45.52;;;;;;;1.41;74.24;94359.03;1808397;79;21074;-54
2021/04/28 04:57:03;;;;;;;95.32;50.73;;;;;;;1.55;74.30;94365.70;1808471;79;21098;-54
2021/04/28 04:59:31;;;;;;;81.12;46.85;;;;;;;1.74;74.77;94359.73;1808410;79;21133;-54
2021/04/28 05:01:59;;;;;;;104.32;51.68;;;;;;;2.03;74.29;94357.72;1808463;78;21117;-53
2021/04/28 05:04:28;;;;;;;132.32;64.40;;;;;;;2.32;73.98;94363.63;1808442;78;21189;-55
2021/04/28 05:06:56;;;;;;;84.40;54.42;;;;;;;2.58;73.53;94358.30;1805712;78;21068;-55
2021/04/28 05:09:24;;;;;;;119.72;59.73;;;;;;;2.83;72.54;94360.72;1800466;79;21069;-54
2021/04/28 05:11:52;;;;;;;121.47;59.65;;;;;;;2.93;72.27;94363.30;1800485;79;21152;-54
2021/04/28 05:14:21;;;;;;;91.85;48.58;;;;;;;3.06;71.78;94356.13;1800435;79;21112;-58
2021/04/28 05:16:49;;;;;;;123.50;56.98;;;;;;;3.14;71.16;94364.38;1800525;79;23455;-57
2021/04/28 05:19:17;;;;;;;74.80;36.50;;;;;;;3.13;70.87;94358.77;1799859;79;21096;-55
2021/04/28 05:21:46;;;;;;;109.32;41.55;;;;;;;3.13;70.29;94363.42;1799693;79;21073;-57
2021/04/28 05:24:14;;;;;;;85.07;38.73;;;;;;;2.97;70.00;94358.59;1811774;78;21184;-53
2021/04/28 05:26:54;;;;;;;54.85;34.78;;;;;;;3.01;70.56;94357.95;1866620;75;22763;-57
2021/04/28 05:29:23;;;;;;;51.98;29.67;;;;;;;3.11;70.37;94363.06;1837237;76;21158;-59
2021/04/28 05:31:58;;;;;;;48.28;32.25;;;;;;;3.15;70.24;94352.91;1829592;76;21346;-53
2021/04/28 05:34:28;;;;;;;47.78;30.72;;;;;;;3.14;70.26;94354.09;1814059;78;21150;-55
2021/04/28 05:37:04;;;;;;;49.27;33.25;;;;;;;3.15;70.47;94354.27;1839688;76;21128;-56
2021/04/28 05:39:40;;;;;;;53.78;34.67;;;;;;;3.22;70.52;94351.47;1844229;76;21145;-58
2021/04/28 05:42:21;;;;;;;58.15;35.58;;;;;;;3.26;70.64;94350.82;1821885;76;21128;-54
2021/04/28 05:44:57;;;;;;;68.78;40.40;;;;;;;3.31;70.69;94351.14;1814918;78;23453;-55
2021/04/28 05:47:49;;;;;;;54.53;36.48;;;;;;;3.36;70.81;94351.24;1799337;78;21167;-55
2021/04/28 05:50:25;;;;;;;61.75;40.75;;;;;;;3.42;70.81;94347.66;1802904;78;21487;-59
2021/04/28 05:52:56;;;;;;;63.10;34.60;;;;;;;3.56;70.79;94340.65;1789560;78;22224;-56
2021/04/28 05:55:32;;;;;;;57.98;34.43;;;;;;;3.73;70.45;94339.00;1767236;78;21205;-56
2021/04/28 05:58:14;;;;;;;50.15;31.75;;;;;;;3.86;70.05;94339.95;1747256;79;21226;-54
2021/04/28 06:00:46;;;;;;;62.38;31.15;;;;;;;4.05;69.73;94339.23;1746965;81;21024;-55
2021/04/28 06:03:18;;;;;;;43.00;28.38;;;;;;;4.18;69.13;94335.32;1744693;81;21200;-55
2021/04/28 06:05:50;;;;;;;52.33;28.85;;;;;;;4.25;68.70;94326.44;1752905;81;21206;-57
2021/04/28 06:08:22;;;;;;;39.00;27.60;;;;;;;4.30;68.46;94330.06;1765985;79;21167;-59
2021/04/28 06:11:04;;;;;;;52.17;28.95;;;;;;;4.39;68.35;94326.18;1727602;81;21630;-56
2021/04/28 06:13:41;;;;;;;54.40;26.82;;;;;;;4.52;67.83;94320.30;1716853;81;21146;-56
2021/04/28 06:16:15;;;;;;;48.78;26.82;;;;;;;4.79;67.44;94317.43;1729179;81;21190;-56
2021/04/28 06:18:52;;;;;;;43.20;25.65;;;;;;;5.09;66.81;94317.95;1732673;81;22057;-59
2021/04/28 06:21:26;;;;;;;26.52;19.23;;;;;;;5.28;65.93;94318.50;1729996;81;21968;-59
2021/04/28 06:24:04;;;;;;;42.58;24.25;;;;;;;5.49;65.01;94318.02;1728411;81;21284;-58
2021/04/28 06:26:32;;;;;;;40.38;22.20;;;;;;;5.59;64.51;94314.28;1736672;80;21169;-57
2021/04/28 06:29:00;;;;;;;25.80;18.67;;;;;;;5.64;64.14;94315.88;1752317;80;21154;-55
2021/04/28 06:31:30;;;;;;;29.90;18.50;;;;;;;5.73;63.65;94318.02;1746539;81;21261;-57
2021/04/28 06:33:58;;;;;;;27.35;16.75;;;;;;;5.84;63.18;94315.84;1751666;81;21239;-59
2021/04/28 06:36:27;;;;;;;22.73;17.75;;;;;;;6.07;62.54;94312.34;1721667;81;21234;-59
2021/04/28 06:38:56;;;;;;;22.62;16.42;;;;;;;6.32;61.76;94310.34;1745835;81;21135;-58
2021/04/28 06:41:24;;;;;;;24.70;16.10;;;;;;;6.51;60.68;94306.70;1747262;81;21146;-57
2021/04/28 06:43:56;;;;;;;25.55;18.65;;;;;;;6.62;59.91;94305.80;1738283;81;21205;-58
2021/04/28 06:46:23;;;;;;;22.73;17.87;;;;;;;6.72;59.59;94304.13;1736690;81;21263;-56
2021/04/28 06:48:51;;;;;;;24.77;18.82;;;;;;;6.85;59.29;94300.09;1750039;81;21237;-57
2021/04/28 06:51:19;;;;;;;29.63;18.00;;;;;;;7.00;58.94;94302.56;1743972;81;21190;-58
2021/04/28 06:53:47;;;;;;;20.43;16.25;;;;;;;7.12;58.81;94301.24;1763411;80;21203;-57
2021/04/28 06:56:15;;;;;;;25.00;16.15;;;;;;;7.24;58.14;94301.25;1714117;81;21214;-58
2021/04/28 06:58:46;;;;;;;27.73;17.37;;;;;;;7.34;57.88;94305.63;1744799;81;22258;-59
2021/04/28 07:01:14;;;;;;;27.58;16.85;;;;;;;7.48;57.59;94307.19;1742033;81;22729;-60
2021/04/28 07:03:43;;;;;;;27.45;17.42;;;;;;;7.58;57.37;94297.28;1746533;79;21194;-60
2021/04/28 07:06:12;;;;;;;23.00;14.43;;;;;;;7.69;56.62;94299.06;1744288;81;21283;-58
2021/04/28 07:08:39;;;;;;;23.57;14.83;;;;;;;7.73;56.11;94299.70;1740229;81;21173;-59
2021/04/28 07:11:08;;;;;;;20.37;14.85;;;;;;;7.78;55.46;94301.91;1736415;81;21394;-59
2021/04/28 07:13:37;;;;;;;29.60;13.58;;;;;;;7.90;55.94;94302.48;1772721;80;21591;-59
2021/04/28 07:16:05;;;;;;;20.20;11.45;;;;;;;8.10;56.62;94289.30;1759904;79;21134;-62
2021/04/28 07:18:34;;;;;;;18.80;11.63;;;;;;;8.33;56.28;94294.44;1772343;79;21710;-59
2021/04/28 07:21:04;;;;;;;19.52;11.50;;;;;;;8.55;55.47;94291.12;1734536;81;21158;-59
2021/04/28 07:23:36;;;;;;;19.37;12.43;;;;;;;8.72;55.06;94295.22;1751469;81;21190;-61
2021/04/28 07:26:08;;;;;;;20.92;12.35;;;;;;;8.85;54.69;94286.33;1740619;81;21218;-58
2021/04/28 07:28:41;;;;;;;22.10;12.98;;;;;;;9.00;53.95;94292.80;1735548;82;27005;-60
2021/04/28 07:31:13;;;;;;;15.32;11.18;;;;;;;9.08;53.75;94290.73;1750851;80;21226;-57
2021/04/28 07:33:41;;;;;;;14.53;10.80;;;;;;;9.24;54.64;94292.52;1759288;80;21119;-56
2021/04/28 07:36:11;;;;;;;13.48;10.18;;;;;;;9.41;54.63;94289.71;1751243;80;21159;-58
2021/04/28 07:38:39;;;;;;;24.15;18.42;;;;;;;9.59;53.24;94285.67;1749241;80;21277;-56
2021/04/28 07:41:07;;;;;;;17.60;12.45;;;;;;;9.73;53.87;94294.71;1763020;80;21250;-57
2021/04/28 07:43:36;;;;;;;13.62;10.85;;;;;;;9.85;53.49;94285.60;1736270;81;21366;-59
2021/04/28 07:46:04;;;;;;;11.75;10.00;;;;;;;9.99;52.70;94290.53;1741260;81;21695;-58
2021/04/28 07:48:32;;;;;;;16.30;13.13;;;;;;;10.06;51.31;94289.67;1742378;81;21095;-59
2021/04/28 07:51:01;;;;;;;16.70;12.50;;;;;;;10.07;51.78;94283.55;1707457;81;21297;-56
2021/04/28 07:53:29;;;;;;;15.43;10.43;;;;;;;10.16;51.82;94286.34;1735914;82;21533;-57
2021/04/28 07:55:57;;;;;;;11.95;9.03;;;;;;;10.29;52.22;94277.33;1737012;81;21150;-55
2021/04/28 07:58:26;;;;;;;10.45;8.75;;;;;;;10.43;51.86;94269.86;1743352;81;21657;-56
2021/04/28 08:00:55;;;;;;;9.63;8.63;;;;;;;10.55;52.48;94269.71;1742923;81;21702;-63
2021/04/28 08:03:23;;;;;;;16.32;10.88;;;;;;;10.71;50.91;94271.41;1739314;81;21245;-56
2021/04/28 08:05:51;;;;;;;18.12;10.63;;;;;;;10.76;49.63;94274.32;1732247;81;21393;-57
2021/04/28 08:08:19;;;;;;;19.17;13.88;;;;;;;10.80;50.80;94271.55;1733530;81;21507;-60
2021/04/28 08:10:48;;;;;;;16.15;10.43;;;;;;;10.94;51.97;94264.05;1713240;80;21186;-60
2021/04/28 08:13:19;;;;;;;17.85;9.20;;;;;;;11.08;51.03;94269.53;1726898;82;21118;-58
2021/04/28 08:15:49;;;;;;;14.25;10.00;;;;;;;11.19;51.26;94254.69;1708811;82;21207;-58
2021/04/28 08:18:17;;;;;;;11.48;9.38;;;;;;;11.30;50.77;94257.70;1737913;81;21161;-58
2021/04/28 08:20:45;;;;;;;20.48;13.45;;;;;;;11.45;49.83;94255.22;1746344;81;21466;-56
2021/04/28 08:23:13;;;;;;;10.90;9.00;;;;;;;11.63;50.11;94253.03;1748109;80;21180;-57
2021/04/28 08:25:42;;;;;;;18.32;14.20;;;;;;;11.79;48.83;94249.30;1737590;81;21163;-60
2021/04/28 08:28:11;;;;;;;10.50;9.08;;;;;;;11.92;48.86;94251.20;1744208;81;21254;-55
2021/04/28 08:30:39;;;;;;;15.13;8.25;;;;;;;12.03;47.84;94246.55;1745033;81;21188;-56
2021/04/28 08:33:09;;;;;;;12.13;8.03;;;;;;;12.17;48.86;94249.40;1756012;81;21444;-57
2021/04/28 08:35:37;;;;;;;9.03;7.25;;;;;;;12.27;46.91;94246.71;1737163;81;21973;-59
2021/04/28 08:38:06;;;;;;;14.15;8.53;;;;;;;12.39;47.48;94246.33;1740367;81;21578;-58
2021/04/28 08:40:35;;;;;;;8.78;7.83;;;;;;;12.49;46.51;94238.89;1742850;81;21221;-59
2021/04/28 08:43:03;;;;;;;8.70;7.40;;;;;;;12.60;46.98;94238.52;1749565;81;21174;-59
2021/04/28 08:45:32;;;;;;;14.43;8.20;;;;;;;12.69;47.31;94236.30;1741615;81;21191;-56
2021/04/28 08:48:00;;;;;;;11.85;7.80;;;;;;;12.80;46.28;94225.46;1741283;81;21161;-58
2021/04/28 08:50:28;;;;;;;20.00;10.20;;;;;;;12.92;46.66;94232.72;1746173;81;21631;-62
2021/04/28 08:52:56;;;;;;;13.78;8.30;;;;;;;13.03;46.44;94228.80;1743366;81;23529;-57
2021/04/28 08:55:24;;;;;;;18.37;11.33;;;;;;;13.13;45.45;94226.10;1729909;81;21821;-56
2021/04/28 08:57:53;;;;;;;13.80;7.85;;;;;;;13.24;44.83;94222.16;1743160;81;21226;-57
2021/04/28 09:00:23;;;;;;;10.10;8.08;;;;;;;13.31;44.25;94225.91;1743963;81;21237;-56
2021/04/28 09:02:55;;;;;;;7.20;6.50;;;;;;;13.39;45.34;94229.80;1744254;81;21142;-59
2021/04/28 09:05:23;;;;;;;;;;;;;;;13.50;43.62;94216.18;1753759;81;21816;-58
2021/04/28 09:07:52;;;;;;;11.75;7.47;;;;;;;13.62;44.35;94217.89;1740267;81;20296;-55
2021/04/28 09:10:29;;;;;;;15.38;7.65;;;;;;;13.67;43.67;94213.06;1743906;81;21218;-62
2021/04/28 09:13:19;;;;;;;12.70;8.33;;;;;;;13.73;43.61;94213.89;1748269;81;21241;-54
2021/04/28 09:16:16;;;;;;;25.50;7.78;;;;;;;13.79;43.28;94210.61;1728960;81;21480;-59
2021/04/28 09:18:46;;;;;;;36.17;10.60;;;;;;;13.94;41.37;94208.55;1739168;81;22255;-60
2021/04/28 09:21:50;;;;;;;8.95;5.92;;;;;;;14.02;41.70;94202.77;1745849;81;21630;-54
2021/04/28 09:24:51;;;;;;;12.85;6.42;;;;;;;14.10;38.93;94206.64;1748281;81;21754;-63
2021/04/28 09:27:48;;;;;;;9.00;6.90;;;;;;;14.18;39.00;94198.12;1864649;75;22563;-57
2021/04/28 09:30:27;;;;;;;26.27;7.45;;;;;;;14.09;39.13;94194.83;1788961;78;21182;-60
2021/04/28 09:33:02;;;;;;;10.25;6.83;;;;;;;14.17;40.10;94191.06;1819613;77;21343;-58
2021/04/28 09:35:32;;;;;;;12.68;7.35;;;;;;;14.35;41.57;94188.77;1818196;77;21157;-60
2021/04/28 09:38:01;;;;;;;7.10;6.33;;;;;;;14.53;42.05;94176.81;1788005;79;21217;-60
2021/04/28 09:40:48;;;;;;;8.13;5.95;;;;;;;14.74;42.21;94171.38;1811189;77;21202;-60
2021/04/28 09:43:17;;;;;;;7.85;6.10;;;;;;;14.93;40.61;94167.05;1829294;76;21158;-67
2021/04/28 09:45:49;;;;;;;6.35;5.28;;;;;;;15.00;39.78;94174.16;1823138;77;21350;-68
2021/04/28 09:48:23;;;;;;;7.67;6.25;;;;;;;15.07;40.86;94167.56;1827297;76;21155;-60
2021/04/28 09:51:06;;;;;;;7.30;6.17;;;;;;;15.13;39.54;94173.13;1837114;76;21206;-58
2021/04/28 09:53:34;;;;;;;10.50;6.45;;;;;;;15.17;39.59;94168.16;1826595;77;21472;-56
2021/04/28 09:56:04;;;;;;;7.87;5.37;;;;;;;15.27;40.02;94167.48;1841993;76;21358;-59
2021/04/28 09:58:52;;;;;;;13.20;6.05;;;;;;;15.42;37.61;94169.55;1784090;77;21443;-60
2021/04/28 10:01:36;;;;;;;9.40;5.72;;;;;;;15.56;35.57;94160.95;1825822;76;21115;-59
2021/04/28 10:04:06;;;;;;;11.50;5.08;;;;;;;15.63;35.14;94159.88;1827898;77;21197;-59
2021/04/28 10:06:50;;;;;;;7.90;5.70;;;;;;;15.67;35.00;94146.53;1822597;77;21177;-57
2021/04/28 10:09:34;;;;;;;9.50;5.97;;;;;;;15.80;35.39;94146.87;1822664;77;21591;-60
2021/04/28 10:12:07;;;;;;;14.95;7.00;;;;;;;15.89;34.98;94143.15;1818002;76;21181;-57
2021/04/28 10:14:37;;;;;;;11.30;7.47;;;;;;;15.95;36.64;94142.55;1821257;77;21203;-59
2021/04/28 10:17:06;;;;;;;13.93;6.62;;;;;;;16.34;38.17;94138.71;1821459;77;21135;-60
2021/04/28 10:19:36;;;;;;;14.53;6.78;;;;;;;16.79;38.55;94141.78;1816800;78;21500;-54
2021/04/28 10:22:10;;;;;;;7.67;5.65;;;;;;;17.14;36.80;94140.09;1782221;79;21222;-58
2021/04/28 10:24:41;;;;;;;6.78;5.85;;;;;;;17.44;34.97;94143.92;1749708;81;21189;-58
2021/04/28 10:27:17;;;;;;;7.40;5.15;;;;;;;17.69;35.72;94132.41;1759217;81;21211;-59
2021/04/28 10:29:40;;;;;;;7.83;5.80;;;;;;;17.90;34.40;94135.80;1758051;80;21562;-59
2021/04/28 10:32:09;;;;;;;7.22;4.95;;;;;;;18.06;34.56;94127.28;1764136;80;21260;-58
2021/04/28 10:35:10;;;;;;;7.70;5.78;;;;;;;18.26;34.04;94132.66;1734237;81;21164;-57
2021/04/28 10:37:41;;;;;;;8.03;4.90;;;;;;;18.55;34.82;94128.53;1759442;81;21908;-58
2021/04/28 10:40:15;;;;;;;18.35;8.15;;;;;;;19.07;33.80;94118.89;1765445;80;21253;-61
2021/04/28 10:42:43;;;;;;;8.63;5.08;;;;;;;19.43;32.05;94114.85;1765387;80;21811;-60
2021/04/28 10:45:31;;;;;;;6.00;5.00;;;;;;;19.82;33.06;94122.25;1759525;80;21213;-60
2021/04/28 10:47:58;;;;;;;13.55;4.67;;;;;;;20.20;32.18;94125.33;1773671;80;21122;-61
2021/04/28 10:50:45;;;;;;;8.98;4.65;;;;;;;20.61;31.34;94114.05;1767029;80;21339;-57
2021/04/28 10:53:30;;;;;;;8.38;4.22;;;;;;;21.00;32.05;94111.53;1765277;80;21197;-59
2021/04/28 10:56:14;;;;;;;8.75;4.00;;;;;;;21.40;32.64;94111.05;1761557;80;21479;-59
2021/04/28 10:58:47;;;;;;;6.33;3.55;;;;;;;21.71;29.64;94102.70;1774017;80;21202;-62
2021/04/28 11:01:17;;;;;;;4.35;3.67;;;;;;;21.95;29.16;94108.13;1783390;80;21218;-62
2021/04/28 11:03:53;;;;;;;5.22;3.83;;;;;;;22.11;30.00;94108.48;1775870;80;21398;-62
2021/04/28 11:06:27;;;;;;;6.03;4.17;;;;;;;22.27;28.34;94106.77;1765350;80;21163;-59
2021/04/28 11:09:04;;;;;;;3.70;3.17;;;;;;;22.43;27.36;94114.12;1768143;78;21183;-59
2021/04/28 11:11:42;;;;;;;5.85;4.33;;;;;;;22.62;27.81;94104.95;1780002;80;21595;-60
2021/04/28 11:14:21;;;;;;;6.70;3.50;;;;;;;22.91;27.23;94106.66;1761631;80;21158;-58
2021/04/28 11:16:58;;;;;;;6.72;4.28;;;;;;;23.31;26.65;94102.47;1758191;80;21285;-58
2021/04/28 11:19:35;;;;;;;11.48;4.58;;;;;;;23.65;27.14;94102.43;1814199;76;21121;-59
2021/04/28 11:22:19;;;;;;;6.92;3.98;;;;;;;23.90;26.59;94101.57;1826112;76;21169;-61
2021/04/28 11:25:12;;;;;;;5.55;3.98;;;;;;;24.05;26.41;94101.70;1778801;78;21611;-63
2021/04/28 11:28:06;;;;;;;7.25;4.62;;;;;;;24.09;26.83;94093.03;1750296;81;21192;-61
2021/04/28 11:30:44;;;;;;;15.90;4.95;;;;;;;24.16;25.71;94094.37;1756892;79;22136;-58
2021/04/28 11:33:27;;;;;;;7.58;4.08;;;;;;;24.33;26.79;94093.27;1763564;80;21214;-57
2021/04/28 11:36:02;;;;;;;6.70;4.10;;;;;;;24.68;26.53;94088.37;1758788;80;21174;-58
2021/04/28 11:38:32;;;;;;;5.42;3.90;;;;;;;24.90;25.62;94083.53;1760009;79;21214;-59
2021/04/28 11:41:08;;;;;;;9.65;4.58;;;;;;;24.97;25.54;94078.58;1772305;80;21176;-59
2021/04/28 11:43:51;;;;;;;19.12;5.50;;;;;;;25.06;25.94;94076.63;1787339;78;21559;-61
2021/04/28 11:46:27;;;;;;;8.10;4.75;;;;;;;25.10;27.16;94082.67;1763228;80;21181;-60
2021/04/28 11:48:59;;;;;;;6.47;4.37;;;;;;;25.05;26.03;94074.48;1762814;80;21167;-59